Time;durP1;ratioP1;P1;durP2;ratioP2;P2;SDS_P1;SDS_P2;PMS_P1;PMS_P2;Temp;Humidity;BMP_temperature;BMP_pressure;BME280_temperature;BME280_humidity;BME280_pressure;Samples;Min_cycle;Max_cycle;Signal;HPM_P1;HPM_P2
2022/08/04 00:00:08;;;;;;;4.00;2.20;;;;;;;22.05;66.74;95758.78;5008523;28;24452;-78
2022/08/04 00:02:47;;;;;;;2.75;2.00;;;;;;;21.82;67.25;95756.00;5009264;28;24451;-77
2022/08/04 00:05:23;;;;;;;3.40;2.10;;;;;;;21.78;68.10;95753.88;4998624;28;24799;-77
2022/08/04 00:08:05;;;;;;;3.03;1.90;;;;;;;21.68;68.20;95759.31;5006957;28;24524;-77
2022/08/04 00:10:34;;;;;;;3.90;2.28;;;;;;;21.70;67.98;95760.81;5005648;28;24476;-77
2022/08/04 00:13:04;;;;;;;4.22;2.00;;;;;;;21.73;68.35;95755.22;5007521;28;24520;-77
2022/08/04 00:15:33;;;;;;;3.90;1.83;;;;;;;21.74;67.96;95754.22;5004054;28;24551;-77
2022/08/04 00:18:03;;;;;;;5.30;2.58;;;;;;;21.72;68.04;95750.91;5009145;28;24498;-78
2022/08/04 00:20:31;;;;;;;3.10;1.90;;;;;;;21.71;68.82;95751.09;5007264;28;24444;-78
2022/08/04 00:22:59;;;;;;;2.00;1.70;;;;;;;21.69;68.97;95751.25;5007096;28;24441;-77
2022/08/04 00:25:26;;;;;;;4.18;1.98;;;;;;;21.72;68.50;95748.28;5003393;28;24439;-77
2022/08/04 00:27:54;;;;;;;2.70;1.80;;;;;;;21.74;68.54;95751.56;5008508;28;24982;-77
2022/08/04 00:30:21;;;;;;;3.47;2.10;;;;;;;21.84;68.18;95745.28;5010383;28;24515;-77
2022/08/04 00:32:49;;;;;;;4.30;2.30;;;;;;;21.64;68.95;95752.72;5009897;28;24443;-77
2022/08/04 00:35:17;;;;;;;3.13;1.98;;;;;;;21.59;68.99;95752.41;5002247;28;24437;-77
2022/08/04 00:37:44;;;;;;;2.40;2.05;;;;;;;21.43;70.29;95751.41;5011076;28;24443;-77
2022/08/04 00:40:22;;;;;;;3.20;1.93;;;;;;;21.34;70.49;95743.66;5005826;28;24440;-77
2022/08/04 00:42:58;;;;;;;4.13;2.38;;;;;;;21.42;69.67;95738.41;5008491;28;24451;-77
2022/08/04 00:45:52;;;;;;;2.30;2.03;;;;;;;21.37;69.60;95743.34;4998538;28;24436;-77
2022/08/04 00:48:34;;;;;;;2.75;1.98;;;;;;;21.21;70.63;95746.72;5006593;28;24482;-77
2022/08/04 00:51:10;;;;;;;5.30;2.00;;;;;;;21.19;70.35;95732.91;5006514;28;24443;-77
2022/08/04 00:53:54;;;;;;;2.17;1.98;;;;;;;21.25;69.87;95745.44;5013456;28;24523;-78
2022/08/04 00:56:41;;;;;;;2.63;1.70;;;;;;;21.18;70.87;95741.81;5012150;28;24470;-78
2022/08/04 00:59:18;;;;;;;4.20;2.20;;;;;;;21.18;70.72;95741.81;5007228;28;24448;-78
2022/08/04 01:02:00;;;;;;;2.35;1.73;;;;;;;21.10;71.17;95737.34;5017552;28;24444;-78
2022/08/04 01:04:43;;;;;;;2.20;1.98;;;;;;;21.21;70.78;95741.47;5011420;28;24507;-77
2022/08/04 01:07:28;;;;;;;2.17;1.92;;;;;;;21.06;71.81;95737.81;5014044;28;24440;-77
2022/08/04 01:10:03;;;;;;;2.20;1.88;;;;;;;20.96;72.40;95736.16;5008683;28;24428;-77
2022/08/04 01:12:49;;;;;;;2.35;1.92;;;;;;;20.96;72.27;95737.97;5008951;28;24443;-77
2022/08/04 01:15:21;;;;;;;3.00;1.88;;;;;;;20.98;71.88;95736.00;5004906;28;24443;-77
2022/08/04 01:18:03;;;;;;;3.22;2.03;;;;;;;20.95;72.24;95746.84;5008387;28;24455;-77
2022/08/04 01:20:34;;;;;;;2.28;1.90;;;;;;;20.96;72.44;95741.44;5007736;28;24804;-77
2022/08/04 01:23:33;;;;;;;2.97;1.90;;;;;;;20.96;72.76;95751.97;5013064;28;24471;-77
2022/08/04 01:26:18;;;;;;;2.10;1.83;;;;;;;21.08;72.02;95743.75;5011326;28;24480;-77
2022/08/04 01:29:09;;;;;;;2.03;1.80;;;;;;;20.92;73.17;95742.75;5009376;28;24544;-77
2022/08/04 01:31:48;;;;;;;2.30;2.08;;;;;;;20.86;73.13;95746.00;5008186;28;24444;-77
2022/08/04 01:34:18;;;;;;;2.35;1.70;;;;;;;20.78;74.15;95751.25;5013318;28;24825;-77
2022/08/04 01:36:51;;;;;;;3.53;2.05;;;;;;;20.81;73.81;95744.84;5013318;28;24518;-77
2022/08/04 01:42:06;;;;;;;2.35;1.80;;;;;;;20.84;73.19;95748.00;5012965;28;24459;-78
2022/08/04 01:44:36;;;;;;;3.80;2.20;;;;;;;20.81;73.40;95740.41;5013001;28;24444;-77
2022/08/04 01:47:03;;;;;;;2.50;1.80;;;;;;;20.80;73.12;95738.75;5013758;28;24439;-77
2022/08/04 01:49:31;;;;;;;3.80;1.90;;;;;;;20.74;74.03;95737.59;5005464;28;24498;-77
2022/08/04 01:51:58;;;;;;;2.50;2.00;;;;;;;20.77;73.80;95739.91;5012070;28;25265;-77
2022/08/04 01:54:26;;;;;;;2.77;1.80;;;;;;;20.60;74.62;95737.38;5012186;28;24447;-77
2022/08/04 01:56:54;;;;;;;3.13;1.70;;;;;;;20.54;74.92;95730.91;5012655;28;24452;-77
2022/08/04 01:59:21;;;;;;;3.20;2.13;;;;;;;20.56;74.81;95742.13;5015387;28;24443;-77
2022/08/04 02:01:49;;;;;;;1.98;1.70;;;;;;;20.46;75.04;95736.13;5011289;28;24444;-77
2022/08/04 02:04:17;;;;;;;2.45;1.80;;;;;;;20.46;75.37;95739.56;5011156;28;24997;-77
2022/08/04 02:06:52;;;;;;;2.13;1.90;;;;;;;20.50;74.88;95738.31;5012431;28;24437;-77
2022/08/04 02:09:23;;;;;;;2.28;2.05;;;;;;;20.52;74.92;95741.63;5009663;28;24556;-77
2022/08/04 02:12:02;;;;;;;3.13;1.90;;;;;;;20.53;75.17;95735.38;5010341;28;24539;-77
2022/08/04 02:14:44;;;;;;;2.55;2.00;;;;;;;20.60;74.34;95737.38;5010167;28;24447;-77
2022/08/04 02:17:12;;;;;;;2.55;2.03;;;;;;;20.56;74.01;95728.16;5011763;28;24503;-76
2022/08/04 02:19:55;;;;;;;2.55;1.60;;;;;;;20.47;74.84;95728.09;5007928;28;24447;-77
2022/08/04 02:22:25;;;;;;;2.83;2.05;;;;;;;20.46;75.12;95728.22;5004216;28;24444;-77
2022/08/04 02:24:59;;;;;;;2.17;1.92;;;;;;;20.46;74.89;95729.06;5001707;28;24518;-77
2022/08/04 02:27:31;;;;;;;4.60;1.80;;;;;;;20.43;75.38;95731.19;5006161;28;24978;-77
2022/08/04 02:30:02;;;;;;;2.03;1.83;;;;;;;20.44;75.41;95730.22;5012316;28;24510;-77
2022/08/04 02:32:37;;;;;;;3.63;2.13;;;;;;;20.46;75.01;95726.41;5007648;28;24839;-77
2022/08/04 02:35:07;;;;;;;2.15;1.95;;;;;;;20.37;75.47;95727.38;5003456;28;24440;-77
2022/08/04 02:37:35;;;;;;;8.15;2.20;;;;;;;20.48;74.15;95723.66;5009945;28;24467;-77
2022/08/04 02:40:04;;;;;;;2.65;2.08;;;;;;;20.44;74.40;95722.31;5012308;28;25018;-77
2022/08/04 02:42:32;;;;;;;2.70;1.80;;;;;;;20.09;76.03;95715.41;5007428;28;24437;-77
2022/08/04 02:45:00;;;;;;;2.50;1.70;;;;;;;19.85;78.07;95716.91;5033879;22;24467;-72
2022/08/04 02:47:29;;;;;;;2.22;2.00;;;;;;;19.80;77.81;95716.53;5010388;28;25003;-72
2022/08/04 02:49:57;;;;;;;4.30;2.00;;;;;;;19.78;78.71;95721.13;5010833;28;24436;-72
2022/08/04 02:52:24;;;;;;;3.13;2.00;;;;;;;19.79;78.83;95715.72;5010776;28;24440;-73
2022/08/04 02:54:54;;;;;;;3.13;2.08;;;;;;;19.82;78.81;95718.03;5002001;28;24436;-73
2022/08/04 02:57:26;;;;;;;2.38;1.80;;;;;;;19.84;78.20;95720.53;5017113;28;24860;-73
2022/08/04 03:00:05;;;;;;;2.22;2.03;;;;;;;19.74;79.13;95717.16;5010940;28;24447;-72
2022/08/04 03:02:40;;;;;;;2.25;1.90;;;;;;;19.69;80.10;95716.78;5012255;28;24439;-72
2022/08/04 03:05:17;;;;;;;2.05;1.90;;;;;;;19.65;80.68;95711.00;5026843;28;24448;-72
2022/08/04 03:08:02;;;;;;;2.00;1.77;;;;;;;19.64;80.15;95712.00;5019106;28;24530;-72
2022/08/04 03:11:02;;;;;;;3.65;2.10;;;;;;;19.58;80.42;95716.06;5013859;28;24432;-71
2022/08/04 03:13:52;;;;;;;3.45;2.20;;;;;;;19.53;79.84;95715.66;5005440;28;24970;-74
2022/08/04 03:16:35;;;;;;;3.03;2.22;;;;;;;19.55;79.90;95718.16;5010346;28;24547;-71
2022/08/04 03:19:45;;;;;;;7.07;2.47;;;;;;;19.33;81.31;95716.84;5018652;28;24520;-71
2022/08/04 03:22:41;;;;;;;4.57;1.90;;;;;;;19.26;81.41;95711.34;5005883;28;24436;-71
2022/08/04 03:25:37;;;;;;;3.38;2.17;;;;;;;19.18;82.95;95711.28;5009637;28;24448;-71
2022/08/04 03:28:45;;;;;;;3.30;2.20;;;;;;;19.20;83.05;95711.13;5017222;28;24435;-71
2022/08/04 03:31:36;;;;;;;4.20;2.20;;;;;;;19.21;83.21;95713.63;5005398;28;24450;-72
2022/08/04 03:34:20;;;;;;;4.28;2.40;;;;;;;19.23;83.18;95721.34;5007425;28;24437;-71
2022/08/04 03:37:18;;;;;;;2.42;2.22;;;;;;;19.28;82.99;95713.81;5005666;28;24455;-72
2022/08/04 03:40:14;;;;;;;2.30;2.10;;;;;;;19.33;82.45;95714.22;5007462;28;24447;-71
2022/08/04 03:43:29;;;;;;;2.75;2.08;;;;;;;19.36;81.87;95716.53;5005885;28;25018;-72
2022/08/04 03:46:29;;;;;;;4.00;2.07;;;;;;;19.40;81.98;95717.88;5015425;28;24518;-72
2022/08/04 03:49:40;;;;;;;2.20;2.00;;;;;;;19.49;81.89;95726.63;4999819;28;24843;-72
2022/08/04 03:55:20;;;;;;;3.17;1.90;;;;;;;19.57;81.02;95716.19;4995128;28;24444;-72
2022/08/04 03:58:12;;;;;;;3.10;2.27;;;;;;;19.53;81.49;95714.84;5020127;28;24452;-71
2022/08/04 04:00:48;;;;;;;2.75;2.08;;;;;;;19.62;80.37;95713.97;5013894;28;24432;-71
2022/08/04 04:03:50;;;;;;;3.65;2.00;;;;;;;19.40;82.18;95712.63;5016732;28;24474;-72
2022/08/04 04:06:47;;;;;;;2.40;1.90;;;;;;;19.31;82.76;95713.53;5003801;28;24459;-71
2022/08/04 04:10:01;;;;;;;2.28;2.00;;;;;;;19.19;83.63;95710.31;5007660;28;24439;-71
2022/08/04 04:13:09;;;;;;;2.57;1.87;;;;;;;19.24;82.25;95709.84;5016702;28;24521;-71
2022/08/04 04:16:05;;;;;;;2.50;2.20;;;;;;;19.18;83.01;95713.91;5016278;28;24441;-71
2022/08/04 04:18:56;;;;;;;2.08;1.88;;;;;;;18.94;84.55;95718.91;5013364;28;24455;-71
2022/08/04 04:21:35;;;;;;;3.70;2.20;;;;;;;18.93;84.66;95723.34;5004454;28;24985;-71
2022/08/04 04:24:21;;;;;;;3.42;2.30;;;;;;;18.99;84.75;95719.31;5014108;28;24433;-71
2022/08/04 04:26:57;;;;;;;2.42;2.00;;;;;;;19.07;84.62;95714.13;5009069;28;24428;-71
2022/08/04 04:29:53;;;;;;;2.40;2.20;;;;;;;19.19;83.94;95709.47;5008917;28;24491;-72
2022/08/04 04:32:23;;;;;;;3.00;2.10;;;;;;;19.19;83.77;95717.34;5010717;28;24432;-72
2022/08/04 04:35:10;;;;;;;3.72;2.47;;;;;;;19.18;84.43;95716.53;5024676;28;24443;-72
2022/08/04 04:37:51;;;;;;;2.28;2.05;;;;;;;19.22;83.64;95719.69;5019756;28;24551;-71
2022/08/04 04:40:28;;;;;;;3.47;2.40;;;;;;;19.31;83.46;95716.97;5021442;28;25056;-72
2022/08/04 04:43:13;;;;;;;1.90;1.80;;;;;;;19.44;83.02;95721.84;5020401;28;24806;-72
2022/08/04 04:45:52;;;;;;;2.67;2.10;;;;;;;19.50;82.45;95723.84;5024628;28;24524;-71
2022/08/04 04:48:33;;;;;;;3.17;2.40;;;;;;;19.60;82.19;95721.13;5012085;28;24984;-71
2022/08/04 04:51:08;;;;;;;2.85;2.25;;;;;;;19.72;81.42;95724.38;5023608;28;24459;-71
2022/08/04 04:53:45;;;;;;;3.53;2.08;;;;;;;19.83;81.41;95721.50;5024711;28;24431;-71
2022/08/04 04:56:19;;;;;;;5.13;2.08;;;;;;;19.92;82.05;95720.56;5024298;28;24427;-71
2022/08/04 04:58:46;;;;;;;3.60;2.15;;;;;;;20.04;82.60;95729.84;5016183;28;24833;-71
2022/08/04 05:01:45;;;;;;;3.58;2.20;;;;;;;20.18;80.77;95723.19;5012599;28;24522;-72
2022/08/04 05:04:29;;;;;;;2.85;2.40;;;;;;;20.33;79.42;95727.88;5006122;28;24436;-71
2022/08/04 05:07:21;;;;;;;4.00;2.50;;;;;;;20.40;77.28;95727.06;5023119;28;24527;-71
2022/08/04 05:10:02;;;;;;;4.28;2.20;;;;;;;20.38;76.12;95728.19;5024001;28;25463;-72
2022/08/04 05:12:42;;;;;;;2.85;2.35;;;;;;;20.38;75.91;95726.38;5007215;28;24437;-72
2022/08/04 05:15:11;;;;;;;4.80;2.22;;;;;;;20.24;76.88;95729.59;5012273;28;24448;-71
2022/08/04 05:17:40;;;;;;;3.58;2.20;;;;;;;20.29;76.46;95724.72;5019094;28;25207;-71
2022/08/04 05:20:13;;;;;;;2.70;2.25;;;;;;;20.20;76.78;95728.28;5022084;28;24809;-71
2022/08/04 05:22:43;;;;;;;7.10;2.35;;;;;;;20.27;76.17;95727.50;5020235;28;24482;-72
2022/08/04 05:25:19;;;;;;;3.42;2.30;;;;;;;20.42;76.13;95727.72;5022451;28;24432;-71
2022/08/04 05:27:49;;;;;;;2.75;2.22;;;;;;;20.46;75.58;95731.69;5015940;28;24850;-71
2022/08/04 05:30:18;;;;;;;6.10;2.20;;;;;;;20.67;75.30;95733.13;5022128;28;24435;-72
2022/08/04 05:32:50;;;;;;;7.38;2.70;;;;;;;20.88;74.05;95732.69;5023927;28;24432;-70
2022/08/04 05:35:22;;;;;;;7.72;2.25;;;;;;;21.06;73.20;95728.09;5022271;28;24440;-71
2022/08/04 05:37:52;;;;;;;4.05;2.45;;;;;;;21.20;71.86;95731.91;5023366;28;24547;-71
2022/08/04 05:40:19;;;;;;;4.07;2.30;;;;;;;21.16;71.95;95727.97;5021611;28;24443;-71
2022/08/04 05:42:48;;;;;;;8.32;2.58;;;;;;;21.21;71.38;95728.28;5023652;28;24439;-71
2022/08/04 05:45:15;;;;;;;3.10;2.10;;;;;;;21.34;71.02;95720.78;5016360;28;24471;-72
2022/08/04 05:47:42;;;;;;;7.32;2.45;;;;;;;21.45;70.60;95728.34;5020064;28;24459;-70
2022/08/04 05:50:09;;;;;;;4.37;2.20;;;;;;;21.37;70.05;95730.16;5022983;28;24443;-74
2022/08/04 05:52:38;;;;;;;3.07;2.33;;;;;;;21.36;69.23;95729.34;5024875;28;24466;-71
2022/08/04 05:55:07;;;;;;;4.53;2.47;;;;;;;21.36;69.38;95731.13;5022349;28;24445;-71
2022/08/04 05:57:34;;;;;;;4.33;2.03;;;;;;;21.31;69.64;95731.59;5024541;28;24452;-71
2022/08/04 06:00:04;;;;;;;4.72;2.25;;;;;;;21.38;69.73;95732.63;5021842;28;24834;-71
2022/08/04 06:02:32;;;;;;;3.75;2.20;;;;;;;21.44;69.32;95731.16;5025144;28;24514;-71
2022/08/04 06:05:00;;;;;;;3.75;2.17;;;;;;;21.50;68.79;95733.13;5021343;28;24506;-71
2022/08/04 06:07:27;;;;;;;2.42;2.08;;;;;;;21.54;68.73;95734.44;5024858;28;25035;-71
2022/08/04 06:09:55;;;;;;;2.63;1.88;;;;;;;21.74;67.49;95737.56;5020421;28;24463;-71
2022/08/04 06:12:25;;;;;;;3.47;2.25;;;;;;;21.73;67.48;95731.50;5025464;28;25025;-71
2022/08/04 06:14:55;;;;;;;5.43;2.40;;;;;;;21.92;66.30;95729.50;5020359;28;24441;-71
2022/08/04 06:17:25;;;;;;;4.72;2.10;;;;;;;22.11;65.84;95728.28;5025287;28;24456;-71
2022/08/04 06:19:53;;;;;;;2.30;2.10;;;;;;;22.17;65.31;95728.47;5019959;28;24790;-71
2022/08/04 06:22:23;;;;;;;2.65;1.88;;;;;;;22.14;64.90;95728.00;5024811;28;24428;-70
2022/08/04 06:24:51;;;;;;;3.95;2.22;;;;;;;22.17;64.56;95730.25;5014690;28;24861;-71
2022/08/04 06:27:20;;;;;;;4.68;2.03;;;;;;;22.34;63.90;95731.06;5025867;28;24506;-71
2022/08/04 06:29:49;;;;;;;5.63;2.53;;;;;;;22.45;64.09;95730.69;5015821;28;24435;-70
2022/08/04 06:32:26;;;;;;;4.87;2.50;;;;;;;22.57;64.14;95731.94;5025912;28;24911;-71
2022/08/04 06:34:55;;;;;;;5.95;2.30;;;;;;;22.86;62.46;95733.97;5017210;28;24447;-71
2022/08/04 06:37:23;;;;;;;2.50;2.10;;;;;;;23.00;62.00;95731.63;5024749;28;24969;-71
2022/08/04 06:39:51;;;;;;;3.55;2.47;;;;;;;23.22;61.02;95732.66;5019345;28;24424;-71
2022/08/04 06:42:21;;;;;;;3.90;2.38;;;;;;;23.32;60.09;95731.38;5025460;28;24432;-71
2022/08/04 06:44:50;;;;;;;3.35;2.40;;;;;;;23.55;59.02;95734.03;5015901;28;24440;-71
2022/08/04 06:47:19;;;;;;;10.98;2.75;;;;;;;23.97;58.35;95743.28;5025555;28;24432;-71
2022/08/04 06:49:48;;;;;;;4.20;2.30;;;;;;;24.37;56.12;95739.41;5015165;28;24509;-71
2022/08/04 06:52:16;;;;;;;9.77;2.20;;;;;;;24.70;55.24;95739.06;5012376;28;24981;-70
2022/08/04 06:54:43;;;;;;;3.08;2.20;;;;;;;24.91;53.82;95738.28;5015043;28;24479;-71
2022/08/04 06:57:13;;;;;;;6.75;2.38;;;;;;;25.19;52.78;95727.81;5025942;28;24791;-71
2022/08/04 06:59:43;;;;;;;3.85;2.00;;;;;;;25.26;51.92;95739.31;5018549;28;24435;-71
2022/08/04 07:02:15;;;;;;;4.07;1.90;;;;;;;25.42;50.36;95738.25;5025298;28;24459;-71
2022/08/04 07:04:42;;;;;;;5.15;2.13;;;;;;;25.55;50.27;95730.44;5014668;28;25009;-71
2022/08/04 07:07:10;;;;;;;3.30;1.75;;;;;;;25.67;49.51;95735.22;5025586;28;24432;-71
2022/08/04 07:09:37;;;;;;;5.72;2.17;;;;;;;25.78;49.68;95735.53;5018426;28;24439;-71
2022/08/04 07:12:05;;;;;;;2.60;1.80;;;;;;;25.96;49.32;95734.25;5025157;28;24424;-71
2022/08/04 07:14:34;;;;;;;5.57;2.15;;;;;;;26.03;48.75;95732.44;5018389;28;24436;-71
2022/08/04 07:17:03;;;;;;;3.10;2.00;;;;;;;26.19;47.15;95729.50;5025377;28;24486;-71
2022/08/04 07:19:31;;;;;;;6.80;2.20;;;;;;;26.36;47.16;95726.53;5018228;28;24538;-71
2022/08/04 07:21:58;;;;;;;3.20;2.13;;;;;;;26.60;46.42;95731.41;5022944;28;24992;-71
2022/08/04 07:24:29;;;;;;;2.50;2.10;;;;;;;26.64;46.02;95727.34;5012385;28;24435;-71
2022/08/04 07:26:56;;;;;;;5.78;2.03;;;;;;;26.84;45.80;95727.41;5024293;28;24961;-70
2022/08/04 07:29:23;;;;;;;10.00;1.83;;;;;;;27.08;45.42;95723.44;5017978;28;24483;-71
2022/08/04 07:31:50;;;;;;;3.80;2.05;;;;;;;27.29;44.46;95719.81;5018449;28;24436;-71
2022/08/04 07:34:19;;;;;;;2.83;1.60;;;;;;;27.47;44.20;95719.22;5018319;28;24435;-71
2022/08/04 07:36:46;;;;;;;2.95;1.90;;;;;;;27.65;42.89;95719.44;5024123;28;24527;-71
2022/08/04 07:39:13;;;;;;;4.50;2.00;;;;;;;27.66;43.49;95718.44;5014977;28;24509;-71
2022/08/04 07:41:42;;;;;;;4.20;1.80;;;;;;;27.84;42.88;95712.53;5022658;28;24522;-71
2022/08/04 07:44:09;;;;;;;5.03;1.73;;;;;;;27.97;42.89;95719.69;5021319;28;24443;-71
2022/08/04 07:46:37;;;;;;;2.40;1.88;;;;;;;28.11;42.16;95721.31;5021709;28;24470;-71
2022/08/04 07:49:03;;;;;;;5.78;1.77;;;;;;;28.23;42.25;95722.31;5020796;28;24459;-71
2022/08/04 07:51:34;;;;;;;2.47;1.90;;;;;;;28.18;41.71;95723.94;5021552;28;24435;-72
2022/08/04 07:54:02;;;;;;;4.03;1.80;;;;;;;28.51;41.70;95715.91;5020693;28;24752;-71
2022/08/04 07:56:29;;;;;;;4.67;1.80;;;;;;;28.75;40.53;95727.75;5021126;28;24446;-71
2022/08/04 07:58:56;;;;;;;3.75;2.05;;;;;;;28.72;40.24;95725.50;5020412;28;24455;-71
2022/08/04 08:01:23;;;;;;;1.80;1.70;;;;;;;28.61;40.95;95716.31;5016796;28;24440;-71
2022/08/04 08:03:51;;;;;;;7.05;2.20;;;;;;;28.86;40.64;95718.28;5018993;28;24440;-71
2022/08/04 08:06:17;;;;;;;4.20;1.80;;;;;;;28.96;40.52;95718.66;5021258;28;24801;-71
2022/08/04 08:08:45;;;;;;;2.65;2.03;;;;;;;29.11;40.11;95719.22;5020636;28;24428;-71
2022/08/04 08:11:12;;;;;;;2.95;1.75;;;;;;;29.33;40.10;95710.88;5009977;28;24428;-72
2022/08/04 08:13:39;;;;;;;2.80;1.90;;;;;;;29.60;39.13;95704.34;5021475;28;24489;-71
2022/08/04 08:16:05;;;;;;;3.13;1.88;;;;;;;29.75;38.19;95711.22;5020250;28;24439;-71
2022/08/04 08:18:32;;;;;;;3.33;1.88;;;;;;;29.91;38.25;95710.69;5014907;28;24455;-71
2022/08/04 08:20:58;;;;;;;2.80;1.90;;;;;;;30.05;37.39;95714.06;5015730;28;24441;-71
2022/08/04 08:23:26;;;;;;;4.10;1.73;;;;;;;30.55;38.23;95706.78;5017912;28;25051;-71
2022/08/04 08:25:54;;;;;;;10.57;1.90;;;;;;;30.94;36.09;95709.25;5018347;28;24433;-71
2022/08/04 08:28:20;;;;;;;1.83;1.60;;;;;;;31.33;35.46;95711.41;5021134;28;24435;-71
2022/08/04 08:30:47;;;;;;;3.40;1.70;;;;;;;31.84;34.24;95706.50;5020437;28;24498;-71
2022/08/04 08:33:15;;;;;;;5.78;1.88;;;;;;;31.80;34.09;95699.97;5021544;28;24436;-70
2022/08/04 08:35:49;;;;;;;4.63;1.90;;;;;;;32.17;34.15;95713.19;5020759;28;24441;-71
2022/08/04 08:38:20;;;;;;;5.70;1.80;;;;;;;32.22;32.86;95713.31;5007875;28;24475;-71
2022/08/04 08:40:50;;;;;;;3.30;1.90;;;;;;;32.39;32.21;95703.50;5019890;28;24432;-71
2022/08/04 08:43:40;;;;;;;4.70;1.92;;;;;;;32.39;31.99;95702.69;5007707;28;24523;-71
2022/08/04 08:46:29;;;;;;;3.28;1.65;;;;;;;32.37;31.51;95707.47;5026774;22;25049;-75
2022/08/04 08:49:08;;;;;;;4.97;1.98;;;;;;;32.41;31.76;95704.13;5006761;28;24984;-76
2022/08/04 08:51:49;;;;;;;2.58;1.50;;;;;;;32.38;31.64;95707.25;5005136;28;24435;-75
2022/08/04 08:54:47;;;;;;;5.33;1.70;;;;;;;32.25;31.17;95710.97;5008926;28;24546;-75
2022/08/04 08:57:26;;;;;;;3.75;1.40;;;;;;;32.69;31.72;95716.78;4978201;28;24449;-76
2022/08/04 09:00:07;;;;;;;4.25;1.52;;;;;;;32.72;30.04;95710.13;4989408;28;24460;-75
2022/08/04 09:03:12;;;;;;;2.03;1.20;;;;;;;32.81;29.03;95706.03;4989581;28;24429;-75
2022/08/04 09:05:50;;;;;;;3.70;1.38;;;;;;;33.05;28.89;95714.03;4987546;28;24800;-75
2022/08/04 09:08:30;;;;;;;3.20;1.70;;;;;;;32.75;28.81;95712.34;4982256;28;24440;-75
2022/08/04 09:11:04;;;;;;;2.35;1.52;;;;;;;32.40;29.12;95707.84;4989498;28;24495;-75
2022/08/04 09:13:36;;;;;;;3.67;1.80;;;;;;;32.20;29.26;95704.69;4989668;28;24507;-75
2022/08/04 09:16:19;;;;;;;2.08;1.30;;;;;;;32.34;30.59;95706.09;4992151;28;24988;-75
2022/08/04 09:18:52;;;;;;;2.78;1.05;;;;;;;32.76;28.31;95713.97;4992675;28;24458;-76
2022/08/04 09:21:31;;;;;;;2.45;1.23;;;;;;;32.67;27.03;95715.38;4980246;28;24531;-75
2022/08/04 09:24:08;;;;;;;3.42;1.40;;;;;;;32.80;28.22;95707.09;4989418;28;24820;-76
2022/08/04 09:26:40;;;;;;;3.17;1.45;;;;;;;32.86;28.00;95713.38;4993027;28;24429;-75
2022/08/04 09:29:13;;;;;;;2.40;1.20;;;;;;;33.30;27.42;95711.84;4992639;28;24433;-75
2022/08/04 09:31:50;;;;;;;1.38;0.95;;;;;;;33.47;26.91;95711.91;4992883;28;24811;-75
2022/08/04 09:34:27;;;;;;;1.87;1.20;;;;;;;33.70;25.36;95700.19;4985051;28;24997;-75
2022/08/04 09:37:11;;;;;;;2.77;1.30;;;;;;;33.61;25.49;95704.34;4992686;28;24495;-75
2022/08/04 09:39:46;;;;;;;1.80;1.20;;;;;;;33.41;26.31;95704.75;4992249;28;25017;-75
2022/08/04 09:42:23;;;;;;;3.10;1.40;;;;;;;33.65;26.55;95700.13;4992553;28;25053;-75
2022/08/04 09:45:00;;;;;;;2.65;1.40;;;;;;;33.64;26.89;95703.88;4992223;28;24878;-75
2022/08/04 09:47:35;;;;;;;1.73;1.27;;;;;;;33.52;26.20;95703.09;4992512;28;24997;-75
2022/08/04 09:50:12;;;;;;;2.63;1.45;;;;;;;34.33;28.59;95698.22;4992301;28;24422;-75
2022/08/04 09:52:46;;;;;;;6.22;1.73;;;;;;;34.81;28.64;95697.53;4992413;28;25072;-76
2022/08/04 09:55:20;;;;;;;4.55;1.60;;;;;;;35.03;27.53;95699.44;4987819;28;24982;-75
2022/08/04 09:57:55;;;;;;;2.58;1.55;;;;;;;34.97;26.76;95698.56;4992385;28;24429;-75
2022/08/04 10:00:25;;;;;;;2.80;1.60;;;;;;;34.47;29.25;95696.81;4989346;28;24460;-75
2022/08/04 10:02:57;;;;;;;4.88;1.70;;;;;;;34.54;27.72;95688.59;4992345;28;24436;-75
2022/08/04 10:05:26;;;;;;;3.05;1.48;;;;;;;34.33;28.27;95699.03;4992039;28;24441;-76
2022/08/04 10:08:07;;;;;;;3.03;1.80;;;;;;;34.57;27.53;95694.28;4992194;28;24491;-75
2022/08/04 10:10:40;;;;;;;3.53;1.60;;;;;;;34.74;28.25;95694.22;4992032;28;24436;-75
2022/08/04 10:13:38;;;;;;;2.42;1.40;;;;;;;34.47;27.56;95693.31;4991917;28;24440;-75
2022/08/04 10:16:24;;;;;;;4.80;1.77;;;;;;;34.19;27.84;95687.84;4990530;28;24452;-75
2022/08/04 10:19:05;;;;;;;2.15;1.50;;;;;;;34.24;29.04;95689.78;4991510;28;24528;-75
2022/08/04 10:21:42;;;;;;;5.55;1.73;;;;;;;34.10;27.88;95693.88;4991995;28;24436;-75
2022/08/04 10:24:25;;;;;;;2.60;1.60;;;;;;;33.85;28.23;95684.31;4991816;28;24441;-75
2022/08/04 10:26:57;;;;;;;4.53;1.85;;;;;;;32.87;30.09;95685.50;4991074;28;25001;-75
2022/08/04 10:29:27;;;;;;;4.82;1.88;;;;;;;32.35;31.01;95685.47;4991462;28;25067;-75
2022/08/04 10:31:58;;;;;;;2.28;1.50;;;;;;;32.79;30.81;95683.19;4991618;28;24648;-75
2022/08/04 10:34:31;;;;;;;4.20;1.50;;;;;;;32.22;30.94;95676.59;4991718;28;24437;-75
2022/08/04 10:37:16;;;;;;;4.57;1.77;;;;;;;32.02;31.80;95684.19;4991561;28;24436;-75
2022/08/04 10:42:37;;;;;;;3.85;1.85;;;;;;;31.79;31.66;95685.78;4985564;28;24457;-75
2022/08/04 10:45:13;;;;;;;4.65;1.60;;;;;;;31.85;31.80;95677.84;4989884;28;24449;-75
2022/08/04 10:47:50;;;;;;;4.75;1.77;;;;;;;32.08;31.32;95693.19;4991625;28;24444;-75
2022/08/04 10:50:21;;;;;;;5.60;1.80;;;;;;;32.16;30.58;95685.59;4989362;28;24795;-75
2022/08/04 10:52:57;;;;;;;3.50;1.70;;;;;;;32.00;30.82;95687.13;4985397;28;24434;-75
2022/08/04 10:55:31;;;;;;;5.28;1.98;;;;;;;31.94;30.79;95682.69;4989853;28;24436;-75
2022/08/04 10:58:01;;;;;;;3.53;1.67;;;;;;;32.35;30.28;95691.63;4991443;28;24524;-75
2022/08/04 11:00:31;;;;;;;4.55;1.70;;;;;;;32.72;29.54;95686.81;4991449;28;24560;-75
2022/08/04 11:03:05;;;;;;;3.53;1.70;;;;;;;32.68;30.61;95687.53;4992415;28;24993;-75
2022/08/04 11:05:41;;;;;;;2.40;1.67;;;;;;;32.81;29.94;95689.13;4990999;28;24528;-75
2022/08/04 11:08:13;;;;;;;2.90;1.52;;;;;;;33.26;29.56;95694.56;4990718;28;25874;-75
2022/08/04 11:10:45;;;;;;;2.25;1.58;;;;;;;33.81;27.52;95688.56;4991115;28;24428;-75
2022/08/04 11:13:15;;;;;;;2.60;1.60;;;;;;;33.98;28.11;95683.19;4991030;28;24966;-75
2022/08/04 11:15:47;;;;;;;3.15;1.50;;;;;;;34.22;28.84;95678.44;4990751;28;24437;-75
2022/08/04 11:18:23;;;;;;;2.60;1.63;;;;;;;34.18;27.60;95674.63;4986623;28;24429;-75
2022/08/04 11:20:56;;;;;;;2.05;1.73;;;;;;;34.39;29.25;95670.34;4989654;28;24453;-75
2022/08/04 11:23:29;;;;;;;2.93;1.73;;;;;;;34.61;28.59;95681.16;4987727;28;24540;-75
2022/08/04 11:26:00;;;;;;;4.35;1.60;;;;;;;34.25;27.00;95688.72;4990617;28;25028;-75
2022/08/04 11:28:42;;;;;;;4.00;1.90;;;;;;;34.25;28.59;95682.53;4985455;28;24444;-75
2022/08/04 11:31:14;;;;;;;3.42;1.80;;;;;;;34.62;27.34;95680.91;4990848;28;24441;-75
2022/08/04 11:33:47;;;;;;;3.90;1.60;;;;;;;34.06;26.83;95668.56;4986318;28;25057;-75
2022/08/04 11:36:24;;;;;;;2.15;1.58;;;;;;;34.03;27.86;95671.72;4984659;28;24433;-75
2022/08/04 11:38:59;;;;;;;2.88;1.50;;;;;;;34.27;29.45;95670.47;4989448;28;24433;-75
2022/08/04 11:41:37;;;;;;;1.60;1.50;;;;;;;34.24;28.29;95664.78;4990390;28;24448;-75
2022/08/04 11:44:05;;;;;;;4.60;1.55;;;;;;;34.51;27.31;95679.16;4990676;28;24437;-75
2022/08/04 11:46:36;;;;;;;3.30;1.60;;;;;;;34.97;27.33;95674.34;4990397;28;24517;-75
2022/08/04 11:49:07;;;;;;;2.97;1.60;;;;;;;34.49;26.59;95675.88;4990158;28;24528;-75
2022/08/04 11:51:36;;;;;;;5.33;1.70;;;;;;;33.98;27.04;95675.13;4990378;28;24483;-75
2022/08/04 11:54:02;;;;;;;3.25;1.75;;;;;;;33.90;27.90;95667.50;4990171;28;24551;-75
2022/08/04 11:56:30;;;;;;;3.45;1.73;;;;;;;34.09;27.60;95665.38;4990384;28;24671;-75
2022/08/04 11:58:59;;;;;;;2.47;1.60;;;;;;;34.51;27.06;95670.28;4990158;28;24513;-75
2022/08/04 12:01:34;;;;;;;5.23;1.53;;;;;;;34.48;27.31;95666.16;4987538;28;24434;-75
2022/08/04 12:04:05;;;;;;;5.18;1.50;;;;;;;34.90;26.34;95657.56;4988449;28;24516;-75
2022/08/04 12:06:42;;;;;;;11.23;2.17;;;;;;;35.06;27.04;95661.25;4989832;28;24432;-75
2022/08/04 12:09:17;;;;;;;2.55;1.65;;;;;;;34.95;26.26;95662.19;4989992;28;24433;-75
2022/08/04 12:11:55;;;;;;;5.55;1.70;;;;;;;34.24;26.84;95662.09;4990167;28;24467;-75
2022/08/04 12:14:28;;;;;;;4.53;1.67;;;;;;;33.62;28.04;95657.63;4983962;28;24432;-75
2022/08/04 12:16:59;;;;;;;2.25;1.67;;;;;;;33.44;28.21;95664.81;4987468;28;24843;-75
2022/08/04 12:19:31;;;;;;;4.57;1.77;;;;;;;33.59;28.47;95660.81;4989463;28;24495;-75